Time;durP1;ratioP1;P1;durP2;ratioP2;P2;SDS_P1;SDS_P2;PMS_P1;PMS_P2;Temp;Humidity;BMP_temperature;BMP_pressure;BME280_temperature;BME280_humidity;BME280_pressure;Samples;Min_cycle;Max_cycle;Signal;HPM_P1;HPM_P2
2021/06/02 00:00:22;;;;;;;6.93;5.00;;;;;;;;;;1500988;39;20329;-57
2021/06/02 00:01:24;;;;;;;6.55;5.00;;;;;;;;;;1505653;39;20443;-59
2021/06/02 00:02:25;;;;;;;6.88;4.82;;;;;;;;;;1505754;39;20041;-56
2021/06/02 00:03:31;;;;;;;7.10;5.07;;;;;;;;;;1505902;39;20061;-57
2021/06/02 00:04:35;;;;;;;7.63;5.05;;;;;;;;;;1505772;39;20406;-57
2021/06/02 00:05:36;;;;;;;6.45;5.20;;;;;;;;;;1505887;39;20081;-57
2021/06/02 00:06:37;;;;;;;5.93;5.32;;;;;;;;;;1505955;39;20074;-56
2021/06/02 00:07:40;;;;;;;5.65;4.53;;;;;;;;;;1505708;39;20029;-57
2021/06/02 00:08:43;;;;;;;7.65;5.03;;;;;;;;;;1501130;39;20026;-57
2021/06/02 00:09:45;;;;;;;5.18;4.43;;;;;;;;;;1501148;39;20038;-57
2021/06/02 00:10:46;;;;;;;6.15;5.28;;;;;;;;;;1505885;39;20033;-57
2021/06/02 00:11:47;;;;;;;7.47;5.38;;;;;;;;;;1505836;39;20027;-57
2021/06/02 00:12:49;;;;;;;6.60;4.85;;;;;;;;;;1505843;39;20027;-57
2021/06/02 00:13:51;;;;;;;6.35;5.13;;;;;;;;;;1505736;39;20305;-57
2021/06/02 00:14:52;;;;;;;7.15;5.25;;;;;;;;;;1505359;39;20088;-56
2021/06/02 00:15:53;;;;;;;6.00;4.97;;;;;;;;;;1505752;39;20023;-57
2021/06/02 00:16:56;;;;;;;6.63;4.80;;;;;;;;;;1505896;39;20035;-56
2021/06/02 00:18:00;;;;;;;5.78;5.18;;;;;;;;;;1505622;39;20042;-57
2021/06/02 00:19:02;;;;;;;9.05;5.75;;;;;;;;;;1505820;39;20042;-58
2021/06/02 00:20:03;;;;;;;7.30;5.15;;;;;;;;;;1505643;39;20309;-57
2021/06/02 00:21:06;;;;;;;7.22;5.47;;;;;;;;;;1505671;39;20031;-57
2021/06/02 00:22:08;;;;;;;6.22;5.50;;;;;;;;;;1505830;39;20063;-56
2021/06/02 00:23:10;;;;;;;6.20;4.85;;;;;;;;;;1505804;39;20030;-57
2021/06/02 00:24:11;;;;;;;6.97;5.38;;;;;;;;;;1505847;39;20063;-59
2021/06/02 00:25:14;;;;;;;7.30;5.35;;;;;;;;;;1505813;39;20034;-57
2021/06/02 00:26:16;;;;;;;7.35;5.18;;;;;;;;;;1505629;39;20029;-57
2021/06/02 00:27:17;;;;;;;9.48;5.68;;;;;;;;;;1505554;39;20305;-58
2021/06/02 00:28:20;;;;;;;10.45;5.30;;;;;;;;;;1505810;39;20019;-57
2021/06/02 00:29:24;;;;;;;6.72;5.10;;;;;;;;;;1505641;39;20022;-57
2021/06/02 00:30:31;;;;;;;7.25;5.20;;;;;;;;;;1505640;39;20054;-57
2021/06/02 00:31:39;;;;;;;5.80;4.95;;;;;;;;;;1505634;39;20039;-57
2021/06/02 00:32:41;;;;;;;7.20;5.40;;;;;;;;;;1505714;39;20074;-57
2021/06/02 00:33:42;;;;;;;6.25;4.82;;;;;;;;;;1505713;39;20026;-56
2021/06/02 00:34:44;;;;;;;6.85;5.30;;;;;;;;;;1505758;39;20030;-56
2021/06/02 00:35:45;;;;;;;7.07;5.35;;;;;;;;;;1505602;39;20030;-56
2021/06/02 00:36:47;;;;;;;8.50;5.15;;;;;;;;;;1505749;39;20053;-57
2021/06/02 00:37:49;;;;;;;7.05;5.28;;;;;;;;;;1505724;39;20040;-57
2021/06/02 00:38:51;;;;;;;6.45;5.13;;;;;;;;;;1505598;39;20477;-57
2021/06/02 00:39:53;;;;;;;6.60;5.57;;;;;;;;;;1505616;39;20038;-57
2021/06/02 00:40:54;;;;;;;8.32;5.32;;;;;;;;;;1505876;39;20397;-57
2021/06/02 00:41:55;;;;;;;6.47;5.65;;;;;;;;;;1505588;39;20026;-56
2021/06/02 00:42:57;;;;;;;7.60;5.38;;;;;;;;;;1505979;39;20027;-56
2021/06/02 00:43:59;;;;;;;8.65;5.35;;;;;;;;;;1505822;39;20030;-57
2021/06/02 00:45:00;;;;;;;5.95;5.20;;;;;;;;;;1505675;39;20298;-57
2021/06/02 00:46:01;;;;;;;7.00;5.30;;;;;;;;;;1505726;39;20046;-57
2021/06/02 00:47:03;;;;;;;6.50;5.53;;;;;;;;;;1505605;39;20381;-57
2021/06/02 00:48:05;;;;;;;6.68;5.25;;;;;;;;;;1505549;39;20026;-57
2021/06/02 00:49:08;;;;;;;9.38;5.07;;;;;;;;;;1505721;39;20034;-57
2021/06/02 00:50:10;;;;;;;6.35;5.40;;;;;;;;;;1505568;39;20033;-57
2021/06/02 00:51:12;;;;;;;7.35;5.70;;;;;;;;;;1505599;39;20381;-57
2021/06/02 00:52:13;;;;;;;6.82;5.65;;;;;;;;;;1505486;39;20041;-57
2021/06/02 00:53:15;;;;;;;6.40;5.80;;;;;;;;;;1505738;39;20051;-56
2021/06/02 00:54:16;;;;;;;7.57;5.82;;;;;;;;;;1505561;39;20027;-57
2021/06/02 00:55:18;;;;;;;7.85;5.63;;;;;;;;;;1505683;39;20042;-57
2021/06/02 00:56:27;;;;;;;7.35;5.70;;;;;;;;;;1505796;39;20121;-56
2021/06/02 00:57:31;;;;;;;7.53;5.68;;;;;;;;;;1505560;39;20026;-57
2021/06/02 00:58:41;;;;;;;7.30;6.00;;;;;;;;;;1505721;39;20026;-57
2021/06/02 00:59:46;;;;;;;9.15;5.65;;;;;;;;;;1505650;39;20030;-57
2021/06/02 01:00:48;;;;;;;5.85;5.07;;;;;;;;;;1505730;39;20135;-57
2021/06/02 01:01:49;;;;;;;6.22;5.50;;;;;;;;;;1505751;39;20052;-57
2021/06/02 01:02:52;;;;;;;7.43;5.40;;;;;;;;;;1505450;39;20042;-57
2021/06/02 01:03:56;;;;;;;7.93;5.57;;;;;;;;;;1505555;39;20038;-57
2021/06/02 01:04:57;;;;;;;6.80;5.25;;;;;;;;;;1505539;39;20029;-56
2021/06/02 01:05:58;;;;;;;7.13;5.63;;;;;;;;;;1505556;39;20408;-57
2021/06/02 01:07:00;;;;;;;7.00;5.25;;;;;;;;;;1505512;39;20299;-57
2021/06/02 01:08:03;;;;;;;6.32;5.35;;;;;;;;;;1505717;39;20062;-57
2021/06/02 01:09:07;;;;;;;6.85;5.35;;;;;;;;;;1505698;39;20026;-57
2021/06/02 01:10:09;;;;;;;8.60;5.47;;;;;;;;;;1505555;39;20027;-57
2021/06/02 01:11:11;;;;;;;7.03;5.25;;;;;;;;;;1505564;39;20038;-56
2021/06/02 01:12:27;;;;;;;8.68;5.43;;;;;;;;;;1505459;39;20389;-56
2021/06/02 01:13:29;;;;;;;6.22;5.20;;;;;;;;;;1505523;39;20370;-57
2021/06/02 01:14:30;;;;;;;7.15;5.70;;;;;;;;;;1505700;39;20033;-56
2021/06/02 01:15:34;;;;;;;6.90;5.97;;;;;;;;;;1505495;39;20049;-57
2021/06/02 01:16:37;;;;;;;7.38;5.40;;;;;;;;;;1505677;39;20027;-57
2021/06/02 01:17:38;;;;;;;7.82;5.10;;;;;;;;;;1505532;39;20400;-57
2021/06/02 01:18:40;;;;;;;7.85;5.90;;;;;;;;;;1505590;39;20023;-57
2021/06/02 01:19:42;;;;;;;7.97;5.78;;;;;;;;;;1505445;39;20027;-57
2021/06/02 01:20:44;;;;;;;7.38;5.43;;;;;;;;;;1505652;39;20034;-56
2021/06/02 01:21:51;;;;;;;7.25;5.60;;;;;;;;;;1505472;39;20023;-57
2021/06/02 01:22:53;;;;;;;7.55;6.10;;;;;;;;;;1505681;39;20038;-56
2021/06/02 01:23:57;;;;;;;6.22;5.47;;;;;;;;;;1505671;39;20039;-57
2021/06/02 01:25:05;;;;;;;6.70;5.32;;;;;;;;;;1505456;39;20307;-56
2021/06/02 01:26:06;;;;;;;6.30;5.60;;;;;;;;;;1505626;39;20033;-57
2021/06/02 01:27:11;;;;;;;6.82;6.13;;;;;;;;;;1505606;39;20027;-56
2021/06/02 01:28:12;;;;;;;6.47;5.32;;;;;;;;;;1505497;39;20022;-57
2021/06/02 01:29:13;;;;;;;8.13;5.40;;;;;;;;;;1505436;39;20079;-58
2021/06/02 01:30:16;;;;;;;7.88;5.80;;;;;;;;;;1505366;39;20026;-57
2021/06/02 01:31:36;;;;;;;8.23;5.32;;;;;;;;;;1505723;39;20118;-57
2021/06/02 01:32:54;;;;;;;7.45;5.63;;;;;;;;;;1505547;39;20026;-57
2021/06/02 01:34:06;;;;;;;7.75;5.60;;;;;;;;;;1505620;39;20037;-57
2021/06/02 01:35:51;;;;;;;7.82;5.20;;;;;;;;;;1505404;39;20026;-57
2021/06/02 01:37:23;;;;;;;6.45;5.43;;;;;;;;;;1505632;39;20111;-57
2021/06/02 01:39:04;;;;;;;7.93;5.60;;;;;;;;;;1505428;39;20297;-56
2021/06/02 01:40:23;;;;;;;6.95;5.80;;;;;;;;;;1505464;39;20076;-57
2021/06/02 01:41:27;;;;;;;8.73;6.07;;;;;;;;;;1505428;39;20110;-56
2021/06/02 01:42:48;;;;;;;8.85;5.95;;;;;;;;;;1505397;39;20038;-57
2021/06/02 01:44:31;;;;;;;7.85;5.78;;;;;;;;;;1505425;39;20073;-56
2021/06/02 01:45:54;;;;;;;8.68;6.03;;;;;;;;;;1505714;39;20031;-56
2021/06/02 01:47:27;;;;;;;8.50;5.82;;;;;;;;;;1504308;39;20050;-57
2021/06/02 01:48:35;;;;;;;6.70;5.63;;;;;;;;;;1505498;39;20093;-56
2021/06/02 01:49:57;;;;;;;7.15;6.05;;;;;;;;;;1505543;39;20023;-57
2021/06/02 01:51:37;;;;;;;8.82;5.82;;;;;;;;;;1505610;39;20043;-56
2021/06/02 01:53:17;;;;;;;8.75;6.40;;;;;;;;;;1505402;39;20026;-56
2021/06/02 01:54:55;;;;;;;7.95;5.97;;;;;;;;;;1505665;39;20034;-57
2021/06/02 01:56:25;;;;;;;7.80;6.03;;;;;;;;;;1505382;39;20088;-56
2021/06/02 01:58:04;;;;;;;7.95;5.80;;;;;;;;;;1505573;39;20031;-56
2021/06/02 01:59:46;;;;;;;8.00;6.10;;;;;;;;;;1505358;39;20462;-57
2021/06/02 02:01:00;;;;;;;8.52;6.65;;;;;;;;;;1487686;40;20035;-57
2021/06/02 02:02:29;;;;;;;8.40;6.53;;;;;;;;;;1488009;39;20028;-59
2021/06/02 02:04:03;;;;;;;7.65;6.38;;;;;;;;;;1505560;39;20037;-57
2021/06/02 02:05:22;;;;;;;8.68;6.28;;;;;;;;;;1505326;39;20394;-57
2021/06/02 02:06:53;;;;;;;7.65;6.55;;;;;;;;;;1505348;39;20041;-59
2021/06/02 02:08:22;;;;;;;7.15;6.32;;;;;;;;;;1505656;39;20026;-58
2021/06/02 02:09:37;;;;;;;9.00;6.70;;;;;;;;;;1505375;39;20066;-59
2021/06/02 02:10:45;;;;;;;9.65;6.15;;;;;;;;;;1505342;39;20389;-57
2021/06/02 02:11:48;;;;;;;8.18;6.60;;;;;;;;;;1505445;39;20066;-57
2021/06/02 02:13:02;;;;;;;8.25;6.43;;;;;;;;;;1505462;39;20046;-57
2021/06/02 02:14:21;;;;;;;7.85;6.72;;;;;;;;;;1505611;39;20030;-57
2021/06/02 02:15:26;;;;;;;7.95;6.47;;;;;;;;;;1505527;39;20111;-57
2021/06/02 02:16:36;;;;;;;9.18;6.90;;;;;;;;;;1505411;39;20325;-57
2021/06/02 02:18:00;;;;;;;8.73;7.53;;;;;;;;;;1505336;39;20027;-57
2021/06/02 02:19:33;;;;;;;7.68;6.63;;;;;;;;;;1505309;39;20030;-57
2021/06/02 02:20:41;;;;;;;8.40;6.55;;;;;;;;;;1490723;39;20359;-59
2021/06/02 02:21:50;;;;;;;7.25;6.53;;;;;;;;;;1505318;39;20037;-57
2021/06/02 02:23:01;;;;;;;8.75;6.38;;;;;;;;;;1505211;39;20034;-57
2021/06/02 02:24:17;;;;;;;8.82;7.57;;;;;;;;;;1505498;39;20030;-57
2021/06/02 02:25:22;;;;;;;9.38;7.03;;;;;;;;;;1505264;39;20394;-57
2021/06/02 02:26:29;;;;;;;8.75;7.10;;;;;;;;;;1505223;39;20107;-59
2021/06/02 02:27:41;;;;;;;8.77;6.90;;;;;;;;;;1505288;39;20055;-59
2021/06/02 02:29:03;;;;;;;9.88;7.43;;;;;;;;;;1505259;39;20038;-57
2021/06/02 02:30:07;;;;;;;9.20;7.30;;;;;;;;;;1505292;39;20027;-57
2021/06/02 02:31:16;;;;;;;9.52;7.38;;;;;;;;;;1505445;39;20044;-57
2021/06/02 02:32:26;;;;;;;9.35;7.18;;;;;;;;;;1505187;39;20309;-56
2021/06/02 02:33:43;;;;;;;9.20;7.28;;;;;;;;;;1505274;39;20027;-58
2021/06/02 02:35:07;;;;;;;11.38;7.53;;;;;;;;;;1505272;39;20066;-57
2021/06/02 02:36:14;;;;;;;8.65;7.05;;;;;;;;;;1505423;39;20033;-58
2021/06/02 02:37:28;;;;;;;10.85;7.05;;;;;;;;;;1505278;39;20079;-57
2021/06/02 02:38:40;;;;;;;9.35;6.85;;;;;;;;;;1505779;39;20054;-57
2021/06/02 02:39:52;;;;;;;8.23;7.32;;;;;;;;;;1505907;39;20023;-57
2021/06/02 02:41:02;;;;;;;9.30;6.88;;;;;;;;;;1505962;39;20489;-57
2021/06/02 02:42:07;;;;;;;7.80;6.82;;;;;;;;;;1505897;39;20302;-57
2021/06/02 02:43:13;;;;;;;11.23;6.97;;;;;;;;;;1506092;39;20062;-57
2021/06/02 02:44:31;;;;;;;8.95;7.38;;;;;;;;;;1506173;39;20050;-57
2021/06/02 02:45:36;;;;;;;7.50;6.70;;;;;;;;;;1505900;39;20033;-57
2021/06/02 02:46:39;;;;;;;7.20;6.47;;;;;;;;;;1506106;39;20030;-57
2021/06/02 02:47:55;;;;;;;8.73;7.15;;;;;;;;;;1506061;39;20071;-57
2021/06/02 02:49:10;;;;;;;9.02;7.20;;;;;;;;;;1505881;39;20026;-57
2021/06/02 02:50:17;;;;;;;8.05;6.57;;;;;;;;;;1506102;39;20071;-57
2021/06/02 02:51:26;;;;;;;7.65;6.57;;;;;;;;;;1505955;39;20026;-57
2021/06/02 02:52:34;;;;;;;;;;;;;;;;;;1506389;39;20387;-57
2021/06/02 02:53:40;;;;;;;8.15;6.25;;;;;;;;;;1506070;39;19934;-57
2021/06/02 02:54:49;;;;;;;8.13;6.78;;;;;;;;;;1505880;39;20070;-57
2021/06/02 02:55:59;;;;;;;8.00;6.68;;;;;;;;;;1506093;39;20027;-57
2021/06/02 02:57:09;;;;;;;9.02;6.75;;;;;;;;;;1505991;39;20027;-57
2021/06/02 02:58:21;;;;;;;7.68;6.28;;;;;;;;;;1505863;39;20027;-57
2021/06/02 02:59:28;;;;;;;7.63;6.80;;;;;;;;;;1505857;39;20023;-57
2021/06/02 03:00:35;;;;;;;8.35;6.57;;;;;;;;;;1501322;39;20031;-58
2021/06/02 03:01:42;;;;;;;9.18;6.88;;;;;;;;;;1501649;39;20031;-57
2021/06/02 03:02:47;;;;;;;10.18;7.32;;;;;;;;;;1505989;39;20026;-57
2021/06/02 03:03:53;;;;;;;8.50;6.63;;;;;;;;;;1505818;39;20035;-57
2021/06/02 03:04:57;;;;;;;7.75;6.70;;;;;;;;;;1506055;39;20031;-56
2021/06/02 03:06:13;;;;;;;8.10;6.68;;;;;;;;;;1505980;39;20033;-57
2021/06/02 03:07:16;;;;;;;8.85;6.85;;;;;;;;;;1505844;39;20031;-57
2021/06/02 03:08:19;;;;;;;8.25;7.15;;;;;;;;;;1505837;39;20389;-57
2021/06/02 03:09:28;;;;;;;9.85;6.72;;;;;;;;;;1505821;39;20401;-57
2021/06/02 03:10:31;;;;;;;9.77;7.07;;;;;;;;;;1505869;39;20087;-57
2021/06/02 03:11:39;;;;;;;8.95;6.63;;;;;;;;;;1505813;39;20058;-57
2021/06/02 03:12:51;;;;;;;8.57;6.55;;;;;;;;;;1505797;39;20320;-58
2021/06/02 03:14:00;;;;;;;8.35;6.97;;;;;;;;;;1506108;39;20026;-56
2021/06/02 03:15:07;;;;;;;8.95;6.80;;;;;;;;;;1506011;39;20049;-57
2021/06/02 03:16:11;;;;;;;7.22;6.25;;;;;;;;;;1505804;39;20045;-57
2021/06/02 03:17:19;;;;;;;8.13;6.55;;;;;;;;;;1505981;39;20026;-57
2021/06/02 03:18:39;;;;;;;9.05;6.93;;;;;;;;;;1505853;39;20127;-58
2021/06/02 03:19:45;;;;;;;8.88;6.30;;;;;;;;;;1506121;39;20031;-57
2021/06/02 03:20:54;;;;;;;8.98;7.13;;;;;;;;;;1505784;39;20037;-57
2021/06/02 03:22:02;;;;;;;8.20;6.78;;;;;;;;;;1505778;39;20057;-58
2021/06/02 03:23:13;;;;;;;9.82;7.07;;;;;;;;;;1505820;39;20019;-57
2021/06/02 03:24:31;;;;;;;9.02;6.75;;;;;;;;;;1506035;39;20031;-57
2021/06/02 03:25:38;;;;;;;9.10;6.85;;;;;;;;;;1505778;39;20030;-57
2021/06/02 03:26:44;;;;;;;7.43;6.60;;;;;;;;;;1505829;39;20062;-57
2021/06/02 03:27:58;;;;;;;8.68;6.43;;;;;;;;;;1505824;39;20022;-57
2021/06/02 03:29:24;;;;;;;9.88;6.50;;;;;;;;;;1506001;39;20027;-58
2021/06/02 03:30:33;;;;;;;8.95;7.22;;;;;;;;;;1505908;39;20027;-59
2021/06/02 03:31:53;;;;;;;9.70;6.32;;;;;;;;;;1505901;39;20042;-57
2021/06/02 03:33:05;;;;;;;8.20;6.43;;;;;;;;;;1506026;39;20030;-57
2021/06/02 03:34:20;;;;;;;9.07;6.53;;;;;;;;;;1505968;39;20027;-57
2021/06/02 03:35:29;;;;;;;9.18;6.57;;;;;;;;;;1505774;39;20287;-57
2021/06/02 03:36:43;;;;;;;8.18;6.55;;;;;;;;;;1505747;39;20026;-57
2021/06/02 03:37:53;;;;;;;9.43;6.35;;;;;;;;;;1505779;39;20382;-57
2021/06/02 03:39:05;;;;;;;9.80;6.80;;;;;;;;;;1505978;39;20038;-57
2021/06/02 03:40:17;;;;;;;8.90;6.70;;;;;;;;;;1505954;39;20027;-57
2021/06/02 03:41:29;;;;;;;9.35;7.22;;;;;;;;;;1505966;39;20038;-59
2021/06/02 03:42:43;;;;;;;7.55;6.72;;;;;;;;;;1505722;39;20034;-57
2021/06/02 03:43:48;;;;;;;8.20;6.55;;;;;;;;;;1505825;39;20037;-57
2021/06/02 03:45:02;;;;;;;8.15;6.95;;;;;;;;;;1505730;39;20287;-57
2021/06/02 03:46:11;;;;;;;7.35;6.50;;;;;;;;;;1505933;39;20031;-58
2021/06/02 03:47:22;;;;;;;10.00;7.30;;;;;;;;;;1505898;39;20029;-57
2021/06/02 03:48:41;;;;;;;7.65;6.60;;;;;;;;;;1505820;39;20283;-57
2021/06/02 03:49:51;;;;;;;9.80;7.30;;;;;;;;;;1505724;39;20026;-57
2021/06/02 03:51:05;;;;;;;7.20;6.47;;;;;;;;;;1505936;39;20057;-57
2021/06/02 03:52:10;;;;;;;7.68;6.90;;;;;;;;;;1505653;39;20062;-57
2021/06/02 03:53:36;;;;;;;10.18;7.30;;;;;;;;;;1505886;39;20031;-57
2021/06/02 03:54:44;;;;;;;7.80;6.57;;;;;;;;;;1505867;39;20022;-59
2021/06/02 03:55:55;;;;;;;8.63;6.28;;;;;;;;;;1505871;39;20022;-59
2021/06/02 03:57:10;;;;;;;9.00;6.90;;;;;;;;;;1505781;39;20382;-57
2021/06/02 03:58:27;;;;;;;7.70;6.90;;;;;;;;;;1505940;39;20034;-57
2021/06/02 03:59:37;;;;;;;8.00;7.20;;;;;;;;;;1505740;39;20386;-57
2021/06/02 04:00:45;;;;;;;9.35;6.38;;;;;;;;;;1505770;39;20419;-58
2021/06/02 04:01:52;;;;;;;11.77;7.03;;;;;;;;;;1505733;39;20030;-57
2021/06/02 04:03:03;;;;;;;9.75;6.80;;;;;;;;;;1505736;39;20069;-57
2021/06/02 04:04:11;;;;;;;8.10;6.78;;;;;;;;;;1505989;39;20027;-57
2021/06/02 04:05:16;;;;;;;8.73;6.68;;;;;;;;;;1505717;39;20031;-57
2021/06/02 04:06:23;;;;;;;8.68;7.03;;;;;;;;;;1505680;39;20034;-57
2021/06/02 04:07:32;;;;;;;7.50;6.63;;;;;;;;;;1505716;39;20038;-57
2021/06/02 04:08:41;;;;;;;9.40;6.68;;;;;;;;;;1505697;39;20030;-57
2021/06/02 04:09:54;;;;;;;8.70;6.72;;;;;;;;;;1505693;39;20304;-57
2021/06/02 04:11:14;;;;;;;9.95;6.90;;;;;;;;;;1505689;39;20082;-58
2021/06/02 04:12:21;;;;;;;10.38;6.90;;;;;;;;;;1505769;39;20034;-57
2021/06/02 04:13:42;;;;;;;9.98;6.85;;;;;;;;;;1505901;39;20050;-57
2021/06/02 04:14:54;;;;;;;9.77;7.10;;;;;;;;;;1505907;39;20042;-59
2021/06/02 04:16:15;;;;;;;7.15;6.32;;;;;;;;;;1505865;39;20033;-57
2021/06/02 04:17:17;;;;;;;7.97;6.25;;;;;;;;;;1506019;39;20034;-57
2021/06/02 04:18:19;;;;;;;8.10;6.18;;;;;;;;;;1505640;39;20030;-57
2021/06/02 04:19:20;;;;;;;8.45;6.85;;;;;;;;;;1505647;39;20041;-57
2021/06/02 04:20:21;;;;;;;8.63;6.25;;;;;;;;;;1505793;39;20026;-57
2021/06/02 04:21:23;;;;;;;7.72;6.88;;;;;;;;;;1505754;39;20275;-57
2021/06/02 04:22:24;;;;;;;10.18;7.28;;;;;;;;;;1505749;39;20030;-57
2021/06/02 04:23:26;;;;;;;8.52;6.90;;;;;;;;;;1505807;39;20035;-57
2021/06/02 04:24:29;;;;;;;9.10;6.80;;;;;;;;;;1505628;39;20030;-57
2021/06/02 04:25:31;;;;;;;7.95;6.68;;;;;;;;;;1505875;39;20046;-57
2021/06/02 04:26:33;;;;;;;7.68;6.18;;;;;;;;;;1505835;39;20030;-57
2021/06/02 04:27:38;;;;;;;8.40;6.88;;;;;;;;;;1505820;39;20030;-57
2021/06/02 04:28:40;;;;;;;10.20;7.38;;;;;;;;;;1505877;39;20070;-57
2021/06/02 04:29:44;;;;;;;8.80;7.03;;;;;;;;;;1501013;39;20063;-56
2021/06/02 04:30:48;;;;;;;9.85;6.72;;;;;;;;;;1501201;39;20409;-58
2021/06/02 04:31:57;;;;;;;8.27;6.32;;;;;;;;;;1505624;39;20302;-57
2021/06/02 04:32:59;;;;;;;10.15;7.63;;;;;;;;;;1505669;39;20389;-57
2021/06/02 04:34:01;;;;;;;8.68;6.68;;;;;;;;;;1505847;39;20026;-57
2021/06/02 04:35:02;;;;;;;8.23;7.07;;;;;;;;;;1505782;39;20027;-57
2021/06/02 04:36:06;;;;;;;7.85;6.97;;;;;;;;;;1505596;39;20303;-57
2021/06/02 04:37:08;;;;;;;7.93;7.05;;;;;;;;;;1505677;39;20393;-57
2021/06/02 04:38:11;;;;;;;9.82;7.75;;;;;;;;;;1505769;39;20130;-57
2021/06/02 04:39:12;;;;;;;8.40;7.60;;;;;;;;;;1505645;39;20341;-57
2021/06/02 04:40:14;;;;;;;8.85;6.47;;;;;;;;;;1505579;39;20034;-57
2021/06/02 04:41:16;;;;;;;8.68;7.07;;;;;;;;;;1505555;39;20026;-57
2021/06/02 04:42:18;;;;;;;9.73;7.25;;;;;;;;;;1505763;39;20037;-57
2021/06/02 04:43:20;;;;;;;7.85;7.05;;;;;;;;;;1505725;39;20019;-57
2021/06/02 04:44:23;;;;;;;9.13;7.10;;;;;;;;;;1505696;39;20026;-57
2021/06/02 04:45:29;;;;;;;9.95;7.30;;;;;;;;;;1505560;39;20031;-57
2021/06/02 04:46:30;;;;;;;9.77;7.07;;;;;;;;;;1505605;39;20070;-57
2021/06/02 04:47:34;;;;;;;7.50;6.57;;;;;;;;;;1505748;39;20027;-57
2021/06/02 04:48:35;;;;;;;7.70;6.82;;;;;;;;;;1505847;39;20105;-59
2021/06/02 04:49:48;;;;;;;8.07;6.45;;;;;;;;;;1505548;39;20026;-57
2021/06/02 04:50:56;;;;;;;8.07;6.40;;;;;;;;;;1505806;39;20062;-57
2021/06/02 04:52:48;;;;;;;6.90;6.20;;;;;;;;;;1505500;39;20381;-57
2021/06/02 04:54:24;;;;;;;6.68;5.97;;;;;;;;;;1505539;39;20031;-57
2021/06/02 04:55:51;;;;;;;9.05;6.18;;;;;;;;;;1500834;39;20310;-57
2021/06/02 04:57:25;;;;;;;7.70;5.85;;;;;;;;;;1502946;39;20034;-57
2021/06/02 04:58:49;;;;;;;9.32;6.88;;;;;;;;;;1505770;39;20027;-57
2021/06/02 05:00:06;;;;;;;8.95;6.25;;;;;;;;;;1505824;39;20026;-57
2021/06/02 05:01:53;;;;;;;7.90;6.70;;;;;;;;;;1505264;39;20034;-57
2021/06/02 05:03:28;;;;;;;7.43;6.07;;;;;;;;;;1487998;40;20028;-58
2021/06/02 05:04:53;;;;;;;8.70;6.40;;;;;;;;;;1487915;40;20117;-58
2021/06/02 05:06:34;;;;;;;7.60;6.22;;;;;;;;;;1505602;39;20022;-58
2021/06/02 05:07:59;;;;;;;;;;;;;;;;;;1506275;39;20026;-58
2021/06/02 05:09:14;;;;;;;9.07;6.05;;;;;;;;;;1505590;39;19963;-58
2021/06/02 05:10:50;;;;;;;8.90;5.82;;;;;;;;;;1505540;39;20309;-58
2021/06/02 05:12:40;;;;;;;7.47;6.00;;;;;;;;;;1505488;39;20301;-58
2021/06/02 05:14:18;;;;;;;8.52;6.07;;;;;;;;;;1505550;39;20030;-59
2021/06/02 05:15:41;;;;;;;7.07;5.82;;;;;;;;;;1505542;39;20034;-57
2021/06/02 05:17:28;;;;;;;7.15;5.65;;;;;;;;;;1505821;39;20042;-58
2021/06/02 05:18:53;;;;;;;8.15;6.47;;;;;;;;;;1505427;39;20132;-57
2021/06/02 05:20:40;;;;;;;8.85;6.03;;;;;;;;;;1505477;39;20297;-58
2021/06/02 05:22:17;;;;;;;7.43;5.75;;;;;;;;;;1485812;39;20060;-58
2021/06/02 05:24:06;;;;;;;7.45;6.30;;;;;;;;;;1487832;40;20066;-58
2021/06/02 05:25:52;;;;;;;8.15;5.70;;;;;;;;;;1505475;39;20382;-58
2021/06/02 05:27:22;;;;;;;8.43;6.53;;;;;;;;;;1505429;39;20106;-58
2021/06/02 05:28:44;;;;;;;6.70;5.50;;;;;;;;;;1505681;39;20057;-57
2021/06/02 05:30:30;;;;;;;6.90;5.57;;;;;;;;;;1505440;39;20301;-58
2021/06/02 05:32:04;;;;;;;7.70;6.28;;;;;;;;;;1505463;39;20070;-58
2021/06/02 05:33:41;;;;;;;8.45;5.93;;;;;;;;;;1505530;39;20066;-58
2021/06/02 05:35:18;;;;;;;9.88;5.95;;;;;;;;;;1505419;39;20026;-58
2021/06/02 05:36:38;;;;;;;9.70;5.75;;;;;;;;;;1505620;39;20029;-58
2021/06/02 05:38:08;;;;;;;6.05;5.40;;;;;;;;;;1505470;39;20066;-58
2021/06/02 05:39:28;;;;;;;7.32;5.70;;;;;;;;;;1505448;39;20026;-58
2021/06/02 05:40:41;;;;;;;7.10;5.35;;;;;;;;;;1505397;39;20057;-58
2021/06/02 05:42:04;;;;;;;6.53;5.50;;;;;;;;;;1505422;39;20027;-58
2021/06/02 05:43:31;;;;;;;7.65;5.57;;;;;;;;;;1505419;39;20038;-58
2021/06/02 05:45:10;;;;;;;8.20;5.63;;;;;;;;;;1505397;39;20042;-58
2021/06/02 05:46:24;;;;;;;6.75;5.35;;;;;;;;;;1505402;39;20390;-58
2021/06/02 05:48:03;;;;;;;7.00;5.60;;;;;;;;;;1505647;39;20031;-58
2021/06/02 05:49:40;;;;;;;7.50;5.78;;;;;;;;;;1505571;39;20023;-58
2021/06/02 05:51:25;;;;;;;9.02;6.45;;;;;;;;;;1505473;39;20026;-58
2021/06/02 05:52:50;;;;;;;6.40;5.20;;;;;;;;;;1505475;39;20037;-58
2021/06/02 05:54:17;;;;;;;8.07;5.25;;;;;;;;;;1491896;39;20121;-58
2021/06/02 05:56:01;;;;;;;10.02;5.63;;;;;;;;;;1505340;39;20308;-58
2021/06/02 05:57:35;;;;;;;9.43;5.88;;;;;;;;;;1500158;39;20034;-58
2021/06/02 05:58:56;;;;;;;6.68;5.40;;;;;;;;;;1505554;39;20106;-58
2021/06/02 06:00:08;;;;;;;7.75;5.43;;;;;;;;;;1505454;39;20105;-58
2021/06/02 06:01:57;;;;;;;8.98;5.45;;;;;;;;;;1505340;39;20442;-58
2021/06/02 06:03:55;;;;;;;6.70;5.60;;;;;;;;;;1501866;39;20038;-58
2021/06/02 06:05:12;;;;;;;8.75;6.05;;;;;;;;;;1505339;39;20305;-58
2021/06/02 06:06:24;;;;;;;6.70;6.10;;;;;;;;;;1505586;39;20027;-58
2021/06/02 06:08:21;;;;;;;7.80;6.00;;;;;;;;;;1505555;39;20110;-58
2021/06/02 06:09:55;;;;;;;8.57;5.82;;;;;;;;;;1505380;39;20334;-59
2021/06/02 06:11:25;;;;;;;9.48;5.40;;;;;;;;;;1503883;39;20027;-58
2021/06/02 06:13:07;;;;;;;8.30;5.72;;;;;;;;;;1505204;39;20420;-59
2021/06/02 06:14:44;;;;;;;7.97;5.55;;;;;;;;;;1505949;39;20026;-58
2021/06/02 06:16:36;;;;;;;15.85;6.63;;;;;;;;;;1485900;39;20115;-61
2021/06/02 06:17:53;;;;;;;9.23;6.00;;;;;;;;;;1505386;39;20034;-58
2021/06/02 06:19:33;;;;;;;14.10;6.05;;;;;;;;;;1501474;39;20054;-58
2021/06/02 06:20:57;;;;;;;8.75;5.63;;;;;;;;;;1504327;39;20038;-59
2021/06/02 06:22:34;;;;;;;9.55;5.63;;;;;;;;;;1505886;39;20386;-60
2021/06/02 06:23:47;;;;;;;9.93;5.63;;;;;;;;;;1505973;39;20037;-59
2021/06/02 06:24:52;;;;;;;8.02;5.47;;;;;;;;;;1506123;39;20031;-59
2021/06/02 06:25:58;;;;;;;9.38;5.65;;;;;;;;;;1505952;39;20057;-59
2021/06/02 06:27:04;;;;;;;8.27;5.57;;;;;;;;;;1505995;39;20398;-59
2021/06/02 06:28:10;;;;;;;7.72;5.70;;;;;;;;;;1506114;39;20030;-59
2021/06/02 06:29:16;;;;;;;7.90;5.35;;;;;;;;;;1505936;39;20026;-58
2021/06/02 06:30:20;;;;;;;9.93;5.03;;;;;;;;;;1506027;39;20034;-58
2021/06/02 06:31:24;;;;;;;7.93;5.00;;;;;;;;;;1506115;39;20114;-58
2021/06/02 06:32:29;;;;;;;7.93;5.55;;;;;;;;;;1505800;39;20030;-60
2021/06/02 06:33:31;;;;;;;7.10;5.45;;;;;;;;;;1505948;39;20401;-59
2021/06/02 06:34:34;;;;;;;8.15;5.75;;;;;;;;;;1505945;39;20035;-59
2021/06/02 06:35:38;;;;;;;6.13;5.30;;;;;;;;;;1505895;39;20023;-59
2021/06/02 06:36:41;;;;;;;10.32;5.38;;;;;;;;;;1506122;39;20110;-59
2021/06/02 06:37:45;;;;;;;8.93;5.88;;;;;;;;;;1505984;39;20326;-60
2021/06/02 06:38:54;;;;;;;7.20;4.95;;;;;;;;;;1506093;39;20110;-59
2021/06/02 06:40:00;;;;;;;9.38;5.88;;;;;;;;;;1506132;39;20031;-59
2021/06/02 06:41:03;;;;;;;13.30;5.82;;;;;;;;;;1506129;39;20025;-59
2021/06/02 06:42:06;;;;;;;8.00;5.45;;;;;;;;;;1505888;39;20027;-59
2021/06/02 06:43:12;;;;;;;9.57;5.03;;;;;;;;;;1506089;39;20062;-60
2021/06/02 06:44:14;;;;;;;7.60;5.18;;;;;;;;;;1506156;39;20023;-59
2021/06/02 06:45:18;;;;;;;8.82;5.07;;;;;;;;;;1505897;39;20033;-59
2021/06/02 06:46:23;;;;;;;10.80;5.70;;;;;;;;;;1506118;39;20070;-59
2021/06/02 06:47:26;;;;;;;6.05;4.47;;;;;;;;;;1506053;39;20472;-59
2021/06/02 06:48:28;;;;;;;9.43;5.10;;;;;;;;;;1506125;39;20461;-58
2021/06/02 06:49:31;;;;;;;8.48;5.18;;;;;;;;;;1505860;39;20308;-60
2021/06/02 06:50:33;;;;;;;9.25;5.88;;;;;;;;;;1505849;39;20115;-59
2021/06/02 06:51:35;;;;;;;11.77;5.57;;;;;;;;;;1505877;39;20385;-59
2021/06/02 06:52:38;;;;;;;9.82;6.00;;;;;;;;;;1505753;39;20106;-59
2021/06/02 06:53:40;;;;;;;11.27;5.95;;;;;;;;;;1505893;39;20027;-59
2021/06/02 06:54:42;;;;;;;12.68;5.80;;;;;;;;;;1505982;39;20026;-60
2021/06/02 06:55:45;;;;;;;9.55;5.80;;;;;;;;;;1505870;39;20278;-59
2021/06/02 06:56:47;;;;;;;6.75;5.75;;;;;;;;;;1505966;39;20026;-59
2021/06/02 06:57:49;;;;;;;6.55;5.72;;;;;;;;;;1505869;39;20275;-59
2021/06/02 06:58:51;;;;;;;8.38;5.57;;;;;;;;;;1506030;39;20029;-59
2021/06/02 06:59:53;;;;;;;6.90;6.05;;;;;;;;;;1506085;39;20027;-60
2021/06/02 07:00:54;;;;;;;6.20;5.60;;;;;;;;;;1505887;39;20026;-58
2021/06/02 07:01:55;;;;;;;6.97;5.35;;;;;;;;;;1505783;39;20022;-60
2021/06/02 07:02:59;;;;;;;9.82;5.82;;;;;;;;;;1505957;39;20062;-59
2021/06/02 07:04:00;;;;;;;9.13;6.10;;;;;;;;;;1506014;39;20097;-58
2021/06/02 07:05:02;;;;;;;11.25;6.00;;;;;;;;;;1506060;39;20027;-58
2021/06/02 07:06:04;;;;;;;7.60;5.40;;;;;;;;;;1505842;39;20026;-59
2021/06/02 07:07:08;;;;;;;7.07;5.40;;;;;;;;;;1506019;39;20022;-59
2021/06/02 07:08:11;;;;;;;10.57;6.05;;;;;;;;;;1501131;39;20042;-59
2021/06/02 07:09:13;;;;;;;7.68;5.35;;;;;;;;;;1501290;39;20037;-58
2021/06/02 07:10:14;;;;;;;8.10;5.13;;;;;;;;;;1505801;39;20297;-58
2021/06/02 07:11:18;;;;;;;9.73;5.88;;;;;;;;;;1505835;39;20412;-59
2021/06/02 07:12:21;;;;;;;7.50;5.55;;;;;;;;;;1505694;39;20026;-60